sensor_id;sensor_type;location;lat;lon;timestamp;temperature;humidity
36990;DHT22;22898;52.102;5.776;2023-03-14T00:02:25;17.90;98.10
36990;DHT22;22898;52.102;5.776;2023-03-14T00:04:54;17.90;98.30
36990;DHT22;22898;52.102;5.776;2023-03-14T00:07:21;18.00;98.00
36990;DHT22;22898;52.102;5.776;2023-03-14T00:09:50;18.20;97.90
36990;DHT22;22898;52.102;5.776;2023-03-14T00:12:16;17.80;98.00
36990;DHT22;22898;52.102;5.776;2023-03-14T00:14:42;17.70;98.20
36990;DHT22;22898;52.102;5.776;2023-03-14T00:17:09;17.60;98.40
36990;DHT22;22898;52.102;5.776;2023-03-14T00:19:34;17.20;98.50
36990;DHT22;22898;52.102;5.776;2023-03-14T00:22:01;16.50;99.10
36990;DHT22;22898;52.102;5.776;2023-03-14T00:24:26;16.50;98.60
36990;DHT22;22898;52.102;5.776;2023-03-14T00:26:52;16.40;98.80
36990;DHT22;22898;52.102;5.776;2023-03-14T00:29:18;15.80;98.70
36990;DHT22;22898;52.102;5.776;2023-03-14T00:31:45;15.90;98.10
36990;DHT22;22898;52.102;5.776;2023-03-14T00:34:12;15.80;98.20
36990;DHT22;22898;52.102;5.776;2023-03-14T00:36:41;15.30;98.20
36990;DHT22;22898;52.102;5.776;2023-03-14T00:39:08;15.20;98.60
36990;DHT22;22898;52.102;5.776;2023-03-14T00:41:33;15.20;98.20
36990;DHT22;22898;52.102;5.776;2023-03-14T00:43:59;14.80;98.70
36990;DHT22;22898;52.102;5.776;2023-03-14T00:46:25;14.30;99.40
36990;DHT22;22898;52.102;5.776;2023-03-14T00:48:50;14.00;99.90
36990;DHT22;22898;52.102;5.776;2023-03-14T00:51:17;14.30;99.80
36990;DHT22;22898;52.102;5.776;2023-03-14T00:53:43;14.80;99.10
36990;DHT22;22898;52.102;5.776;2023-03-14T00:56:10;15.20;98.40
36990;DHT22;22898;52.102;5.776;2023-03-14T00:58:37;15.60;98.00
36990;DHT22;22898;52.102;5.776;2023-03-14T01:01:08;15.50;98.10
36990;DHT22;22898;52.102;5.776;2023-03-14T01:03:35;15.60;97.70
36990;DHT22;22898;52.102;5.776;2023-03-14T01:06:24;14.80;99.10
36990;DHT22;22898;52.102;5.776;2023-03-14T01:08:50;14.80;99.30
36990;DHT22;22898;52.102;5.776;2023-03-14T01:11:29;14.70;99.90
36990;DHT22;22898;52.102;5.776;2023-03-14T01:13:55;15.60;99.70
36990;DHT22;22898;52.102;5.776;2023-03-14T01:16:23;16.20;99.50
36990;DHT22;22898;52.102;5.776;2023-03-14T01:18:49;16.60;98.70
36990;DHT22;22898;52.102;5.776;2023-03-14T01:21:23;16.00;99.10
36990;DHT22;22898;52.102;5.776;2023-03-14T01:23:51;15.60;98.90
36990;DHT22;22898;52.102;5.776;2023-03-14T01:26:19;14.10;99.90
36990;DHT22;22898;52.102;5.776;2023-03-14T01:28:45;13.70;99.90
36990;DHT22;22898;52.102;5.776;2023-03-14T01:31:12;13.60;99.90
36990;DHT22;22898;52.102;5.776;2023-03-14T01:33:40;13.50;99.90
36990;DHT22;22898;52.102;5.776;2023-03-14T01:36:07;13.30;99.90
36990;DHT22;22898;52.102;5.776;2023-03-14T01:38:34;13.20;99.90
36990;DHT22;22898;52.102;5.776;2023-03-14T01:41:00;12.90;99.90
36990;DHT22;22898;52.102;5.776;2023-03-14T01:43:27;12.60;99.90
36990;DHT22;22898;52.102;5.776;2023-03-14T01:48:50;13.60;99.90
36990;DHT22;22898;52.102;5.776;2023-03-14T01:51:27;13.80;99.90
36990;DHT22;22898;52.102;5.776;2023-03-14T01:53:59;13.70;99.90
36990;DHT22;22898;52.102;5.776;2023-03-14T01:56:27;14.10;99.90
36990;DHT22;22898;52.102;5.776;2023-03-14T01:58:54;14.20;99.90
36990;DHT22;22898;52.102;5.776;2023-03-14T02:01:21;14.00;99.90
36990;DHT22;22898;52.102;5.776;2023-03-14T02:03:55;14.10;99.90
36990;DHT22;22898;52.102;5.776;2023-03-14T02:06:27;14.20;99.90
36990;DHT22;22898;52.102;5.776;2023-03-14T02:08:55;13.90;99.90
36990;DHT22;22898;52.102;5.776;2023-03-14T02:11:21;13.90;99.90
36990;DHT22;22898;52.102;5.776;2023-03-14T02:13:52;14.20;99.90
36990;DHT22;22898;52.102;5.776;2023-03-14T02:16:19;14.20;99.90
36990;DHT22;22898;52.102;5.776;2023-03-14T02:18:44;14.30;99.90
36990;DHT22;22898;52.102;5.776;2023-03-14T02:21:45;14.00;99.90
36990;DHT22;22898;52.102;5.776;2023-03-14T02:25:12;13.80;99.90
36990;DHT22;22898;52.102;5.776;2023-03-14T02:27:19;14.40;99.90
36990;DHT22;22898;52.102;5.776;2023-03-14T02:30:03;14.20;99.90
36990;DHT22;22898;52.102;5.776;2023-03-14T02:32:31;14.30;99.90
36990;DHT22;22898;52.102;5.776;2023-03-14T02:34:59;14.60;99.90
36990;DHT22;22898;52.102;5.776;2023-03-14T02:37:35;14.70;99.90
36990;DHT22;22898;52.102;5.776;2023-03-14T02:40:03;15.00;99.90
36990;DHT22;22898;52.102;5.776;2023-03-14T02:42:30;14.80;99.90
36990;DHT22;22898;52.102;5.776;2023-03-14T02:47:49;14.50;99.90
36990;DHT22;22898;52.102;5.776;2023-03-14T02:50:20;14.50;99.90
36990;DHT22;22898;52.102;5.776;2023-03-14T02:52:46;14.50;99.90
36990;DHT22;22898;52.102;5.776;2023-03-14T02:55:13;14.60;99.90
36990;DHT22;22898;52.102;5.776;2023-03-14T02:57:39;14.70;99.90
36990;DHT22;22898;52.102;5.776;2023-03-14T03:00:05;14.90;99.90
36990;DHT22;22898;52.102;5.776;2023-03-14T03:02:32;15.20;99.90
36990;DHT22;22898;52.102;5.776;2023-03-14T03:04:59;15.30;99.90
36990;DHT22;22898;52.102;5.776;2023-03-14T03:07:24;15.50;99.90
36990;DHT22;22898;52.102;5.776;2023-03-14T03:09:50;15.40;99.90
36990;DHT22;22898;52.102;5.776;2023-03-14T03:12:17;15.60;99.90
36990;DHT22;22898;52.102;5.776;2023-03-14T03:14:42;15.60;99.90
36990;DHT22;22898;52.102;5.776;2023-03-14T03:17:09;15.70;99.90
36990;DHT22;22898;52.102;5.776;2023-03-14T03:19:35;15.80;99.90
36990;DHT22;22898;52.102;5.776;2023-03-14T03:22:00;15.70;99.90
36990;DHT22;22898;52.102;5.776;2023-03-14T03:24:27;15.90;99.90
36990;DHT22;22898;52.102;5.776;2023-03-14T03:26:53;16.30;99.90
36990;DHT22;22898;52.102;5.776;2023-03-14T03:29:19;16.40;99.90
36990;DHT22;22898;52.102;5.776;2023-03-14T03:31:47;16.20;99.90
36990;DHT22;22898;52.102;5.776;2023-03-14T03:34:14;16.00;99.90
36990;DHT22;22898;52.102;5.776;2023-03-14T03:36:40;16.00;99.90
36990;DHT22;22898;52.102;5.776;2023-03-14T03:39:06;16.10;99.90
36990;DHT22;22898;52.102;5.776;2023-03-14T03:41:31;16.20;99.90
36990;DHT22;22898;52.102;5.776;2023-03-14T03:43:57;16.40;99.90
36990;DHT22;22898;52.102;5.776;2023-03-14T03:46:23;16.40;99.90
36990;DHT22;22898;52.102;5.776;2023-03-14T03:48:53;16.40;99.90
36990;DHT22;22898;52.102;5.776;2023-03-14T03:51:19;16.40;99.90
36990;DHT22;22898;52.102;5.776;2023-03-14T03:53:44;16.10;99.90
36990;DHT22;22898;52.102;5.776;2023-03-14T03:56:10;16.10;99.90
36990;DHT22;22898;52.102;5.776;2023-03-14T03:58:36;16.10;99.90
36990;DHT22;22898;52.102;5.776;2023-03-14T04:01:05;16.10;99.90
36990;DHT22;22898;52.102;5.776;2023-03-14T04:03:33;16.00;99.90
36990;DHT22;22898;52.102;5.776;2023-03-14T04:06:05;16.00;99.90
36990;DHT22;22898;52.102;5.776;2023-03-14T04:08:31;16.10;99.90
36990;DHT22;22898;52.102;5.776;2023-03-14T04:10:58;16.10;99.90
36990;DHT22;22898;52.102;5.776;2023-03-14T04:13:25;16.30;99.90
36990;DHT22;22898;52.102;5.776;2023-03-14T04:15:52;16.40;99.90
36990;DHT22;22898;52.102;5.776;2023-03-14T04:18:21;16.30;99.90
36990;DHT22;22898;52.102;5.776;2023-03-14T04:20:51;16.30;99.90
36990;DHT22;22898;52.102;5.776;2023-03-14T04:23:18;16.40;99.90
36990;DHT22;22898;52.102;5.776;2023-03-14T04:25:43;16.20;99.90
36990;DHT22;22898;52.102;5.776;2023-03-14T04:28:09;16.30;99.90
36990;DHT22;22898;52.102;5.776;2023-03-14T04:30:35;16.10;99.90
36990;DHT22;22898;52.102;5.776;2023-03-14T04:33:00;16.10;99.90
36990;DHT22;22898;52.102;5.776;2023-03-14T04:35:27;16.10;99.90
36990;DHT22;22898;52.102;5.776;2023-03-14T04:37:53;16.20;99.90
36990;DHT22;22898;52.102;5.776;2023-03-14T04:40:19;16.20;99.90
36990;DHT22;22898;52.102;5.776;2023-03-14T04:42:45;16.20;99.90
36990;DHT22;22898;52.102;5.776;2023-03-14T04:45:12;16.10;99.90
36990;DHT22;22898;52.102;5.776;2023-03-14T04:47:38;16.10;99.90
36990;DHT22;22898;52.102;5.776;2023-03-14T04:50:05;16.20;99.90
36990;DHT22;22898;52.102;5.776;2023-03-14T04:52:31;16.00;99.90
36990;DHT22;22898;52.102;5.776;2023-03-14T04:54:57;16.20;99.90
36990;DHT22;22898;52.102;5.776;2023-03-14T04:57:23;16.00;99.90
36990;DHT22;22898;52.102;5.776;2023-03-14T04:59:48;15.70;99.90
36990;DHT22;22898;52.102;5.776;2023-03-14T05:02:15;15.60;99.90
36990;DHT22;22898;52.102;5.776;2023-03-14T05:04:42;15.70;99.90
36990;DHT22;22898;52.102;5.776;2023-03-14T05:07:07;15.70;99.90
36990;DHT22;22898;52.102;5.776;2023-03-14T05:09:36;16.10;99.90
36990;DHT22;22898;52.102;5.776;2023-03-14T05:12:01;16.20;99.90
36990;DHT22;22898;52.102;5.776;2023-03-14T05:14:27;16.20;99.90
36990;DHT22;22898;52.102;5.776;2023-03-14T05:16:53;16.20;99.90
36990;DHT22;22898;52.102;5.776;2023-03-14T05:19:18;16.20;99.90
36990;DHT22;22898;52.102;5.776;2023-03-14T05:21:45;15.80;99.90
36990;DHT22;22898;52.102;5.776;2023-03-14T05:24:12;15.80;99.90
36990;DHT22;22898;52.102;5.776;2023-03-14T05:26:39;15.70;99.90
36990;DHT22;22898;52.102;5.776;2023-03-14T05:29:05;15.80;99.90
36990;DHT22;22898;52.102;5.776;2023-03-14T05:31:30;15.70;99.90
36990;DHT22;22898;52.102;5.776;2023-03-14T05:33:56;15.30;99.90
36990;DHT22;22898;52.102;5.776;2023-03-14T05:36:22;15.20;99.90
36990;DHT22;22898;52.102;5.776;2023-03-14T05:38:47;15.60;99.90
36990;DHT22;22898;52.102;5.776;2023-03-14T05:41:13;15.90;99.90
36990;DHT22;22898;52.102;5.776;2023-03-14T05:43:38;16.00;99.90
36990;DHT22;22898;52.102;5.776;2023-03-14T05:46:05;16.00;99.90
36990;DHT22;22898;52.102;5.776;2023-03-14T05:48:31;15.60;99.90
36990;DHT22;22898;52.102;5.776;2023-03-14T05:50:57;15.60;99.90
36990;DHT22;22898;52.102;5.776;2023-03-14T05:53:25;15.60;99.90
36990;DHT22;22898;52.102;5.776;2023-03-14T05:55:53;15.70;99.90
36990;DHT22;22898;52.102;5.776;2023-03-14T05:58:19;15.40;99.90
36990;DHT22;22898;52.102;5.776;2023-03-14T06:00:45;15.20;99.90
36990;DHT22;22898;52.102;5.776;2023-03-14T06:03:10;15.10;99.90
36990;DHT22;22898;52.102;5.776;2023-03-14T06:05:36;15.20;99.90
36990;DHT22;22898;52.102;5.776;2023-03-14T06:08:02;15.40;99.90
36990;DHT22;22898;52.102;5.776;2023-03-14T06:10:27;15.60;99.90
36990;DHT22;22898;52.102;5.776;2023-03-14T06:12:54;15.60;99.90
36990;DHT22;22898;52.102;5.776;2023-03-14T06:15:21;15.40;99.90
36990;DHT22;22898;52.102;5.776;2023-03-14T06:17:47;15.40;99.90
36990;DHT22;22898;52.102;5.776;2023-03-14T06:20:12;15.60;99.90
36990;DHT22;22898;52.102;5.776;2023-03-14T06:22:38;15.80;99.90
36990;DHT22;22898;52.102;5.776;2023-03-14T06:25:06;15.60;99.90
36990;DHT22;22898;52.102;5.776;2023-03-14T06:27:33;15.60;99.90
36990;DHT22;22898;52.102;5.776;2023-03-14T06:29:58;15.60;99.90
36990;DHT22;22898;52.102;5.776;2023-03-14T06:32:24;15.90;99.90
36990;DHT22;22898;52.102;5.776;2023-03-14T06:34:53;15.70;99.90
36990;DHT22;22898;52.102;5.776;2023-03-14T06:37:20;15.80;99.90
36990;DHT22;22898;52.102;5.776;2023-03-14T06:39:45;16.00;99.90
36990;DHT22;22898;52.102;5.776;2023-03-14T06:42:11;16.30;99.90
36990;DHT22;22898;52.102;5.776;2023-03-14T06:44:39;16.40;99.90
36990;DHT22;22898;52.102;5.776;2023-03-14T06:47:05;16.00;99.90
36990;DHT22;22898;52.102;5.776;2023-03-14T06:49:32;15.90;99.90
36990;DHT22;22898;52.102;5.776;2023-03-14T06:52:00;15.70;99.90
36990;DHT22;22898;52.102;5.776;2023-03-14T06:54:25;15.70;99.90
36990;DHT22;22898;52.102;5.776;2023-03-14T06:56:51;15.90;99.90
36990;DHT22;22898;52.102;5.776;2023-03-14T06:59:16;16.20;99.90
36990;DHT22;22898;52.102;5.776;2023-03-14T07:01:42;16.00;99.90
36990;DHT22;22898;52.102;5.776;2023-03-14T07:04:09;15.80;99.90
36990;DHT22;22898;52.102;5.776;2023-03-14T07:06:36;15.30;99.90
36990;DHT22;22898;52.102;5.776;2023-03-14T07:09:02;13.90;99.90
36990;DHT22;22898;52.102;5.776;2023-03-14T07:11:28;13.60;99.90
36990;DHT22;22898;52.102;5.776;2023-03-14T07:13:53;12.90;99.90
36990;DHT22;22898;52.102;5.776;2023-03-14T07:16:19;12.30;99.90
36990;DHT22;22898;52.102;5.776;2023-03-14T07:18:46;11.90;99.90
36990;DHT22;22898;52.102;5.776;2023-03-14T07:21:13;11.80;99.90
36990;DHT22;22898;52.102;5.776;2023-03-14T07:23:39;11.90;99.90
36990;DHT22;22898;52.102;5.776;2023-03-14T07:26:06;11.10;99.90
36990;DHT22;22898;52.102;5.776;2023-03-14T07:28:31;10.70;99.90
36990;DHT22;22898;52.102;5.776;2023-03-14T07:30:57;10.30;99.90
36990;DHT22;22898;52.102;5.776;2023-03-14T07:33:22;10.30;99.90
36990;DHT22;22898;52.102;5.776;2023-03-14T07:35:48;10.20;99.90
36990;DHT22;22898;52.102;5.776;2023-03-14T07:38:15;10.20;99.90
36990;DHT22;22898;52.102;5.776;2023-03-14T07:40:42;10.30;99.90
36990;DHT22;22898;52.102;5.776;2023-03-14T07:43:07;10.10;99.90
36990;DHT22;22898;52.102;5.776;2023-03-14T07:45:33;10.40;99.90
36990;DHT22;22898;52.102;5.776;2023-03-14T07:47:58;10.70;99.90
36990;DHT22;22898;52.102;5.776;2023-03-14T07:50:26;10.90;99.90
36990;DHT22;22898;52.102;5.776;2023-03-14T07:52:53;10.70;99.90
36990;DHT22;22898;52.102;5.776;2023-03-14T07:55:18;10.60;99.90
36990;DHT22;22898;52.102;5.776;2023-03-14T07:57:44;10.30;99.90
36990;DHT22;22898;52.102;5.776;2023-03-14T08:00:10;10.00;99.90
36990;DHT22;22898;52.102;5.776;2023-03-14T08:02:36;9.40;99.90
36990;DHT22;22898;52.102;5.776;2023-03-14T08:05:03;9.20;99.90
36990;DHT22;22898;52.102;5.776;2023-03-14T08:07:29;9.30;99.90
36990;DHT22;22898;52.102;5.776;2023-03-14T08:09:54;9.60;99.90
36990;DHT22;22898;52.102;5.776;2023-03-14T08:12:21;9.60;99.90
36990;DHT22;22898;52.102;5.776;2023-03-14T08:14:46;9.60;99.90
36990;DHT22;22898;52.102;5.776;2023-03-14T08:17:13;9.60;99.90
36990;DHT22;22898;52.102;5.776;2023-03-14T08:19:41;9.30;99.90
36990;DHT22;22898;52.102;5.776;2023-03-14T08:22:06;8.80;99.90
36990;DHT22;22898;52.102;5.776;2023-03-14T08:24:32;8.70;99.90
36990;DHT22;22898;52.102;5.776;2023-03-14T08:26:57;8.50;99.90
36990;DHT22;22898;52.102;5.776;2023-03-14T08:29:23;8.00;99.90
36990;DHT22;22898;52.102;5.776;2023-03-14T08:31:50;7.80;99.90
36990;DHT22;22898;52.102;5.776;2023-03-14T08:34:15;7.80;99.90
36990;DHT22;22898;52.102;5.776;2023-03-14T08:36:41;8.20;99.90
36990;DHT22;22898;52.102;5.776;2023-03-14T08:39:07;8.00;99.90
36990;DHT22;22898;52.102;5.776;2023-03-14T08:41:33;7.50;99.90
36990;DHT22;22898;52.102;5.776;2023-03-14T08:44:00;7.60;99.90
36990;DHT22;22898;52.102;5.776;2023-03-14T08:46:26;8.00;99.90
36990;DHT22;22898;52.102;5.776;2023-03-14T08:48:51;8.20;99.90
36990;DHT22;22898;52.102;5.776;2023-03-14T08:51:18;8.50;99.90
36990;DHT22;22898;52.102;5.776;2023-03-14T08:53:44;8.80;99.90
36990;DHT22;22898;52.102;5.776;2023-03-14T08:56:09;8.90;99.90
36990;DHT22;22898;52.102;5.776;2023-03-14T08:58:36;8.30;99.90
36990;DHT22;22898;52.102;5.776;2023-03-14T09:01:04;8.20;99.90
36990;DHT22;22898;52.102;5.776;2023-03-14T09:03:30;7.90;99.90
36990;DHT22;22898;52.102;5.776;2023-03-14T09:06:02;7.80;99.90
36990;DHT22;22898;52.102;5.776;2023-03-14T09:08:33;7.90;99.90
36990;DHT22;22898;52.102;5.776;2023-03-14T09:10:59;7.70;99.90
36990;DHT22;22898;52.102;5.776;2023-03-14T09:13:25;7.60;99.90
36990;DHT22;22898;52.102;5.776;2023-03-14T09:15:56;7.50;99.90
36990;DHT22;22898;52.102;5.776;2023-03-14T09:18:22;7.80;99.90
36990;DHT22;22898;52.102;5.776;2023-03-14T09:20:48;8.00;99.90
36990;DHT22;22898;52.102;5.776;2023-03-14T09:23:14;8.60;99.90
36990;DHT22;22898;52.102;5.776;2023-03-14T09:25:40;9.00;99.90
36990;DHT22;22898;52.102;5.776;2023-03-14T09:28:05;9.00;99.90
36990;DHT22;22898;52.102;5.776;2023-03-14T09:30:31;8.90;99.90
36990;DHT22;22898;52.102;5.776;2023-03-14T09:32:57;9.40;99.90
36990;DHT22;22898;52.102;5.776;2023-03-14T09:35:26;9.30;99.90
36990;DHT22;22898;52.102;5.776;2023-03-14T09:37:51;9.10;99.90
36990;DHT22;22898;52.102;5.776;2023-03-14T09:40:19;9.10;99.90
36990;DHT22;22898;52.102;5.776;2023-03-14T09:42:48;8.30;99.90
36990;DHT22;22898;52.102;5.776;2023-03-14T09:45:26;8.00;99.90
36990;DHT22;22898;52.102;5.776;2023-03-14T09:47:56;8.20;99.90
36990;DHT22;22898;52.102;5.776;2023-03-14T09:50:23;8.20;99.90
36990;DHT22;22898;52.102;5.776;2023-03-14T09:52:52;8.50;99.90
36990;DHT22;22898;52.102;5.776;2023-03-14T09:55:22;8.70;99.90
36990;DHT22;22898;52.102;5.776;2023-03-14T09:57:49;8.80;99.90
36990;DHT22;22898;52.102;5.776;2023-03-14T10:00:24;9.10;99.90
36990;DHT22;22898;52.102;5.776;2023-03-14T10:05:40;9.10;99.90
36990;DHT22;22898;52.102;5.776;2023-03-14T10:08:12;9.50;99.90
36990;DHT22;22898;52.102;5.776;2023-03-14T10:10:38;9.30;99.90
36990;DHT22;22898;52.102;5.776;2023-03-14T10:13:25;8.80;99.90
36990;DHT22;22898;52.102;5.776;2023-03-14T10:16:04;9.00;99.90
36990;DHT22;22898;52.102;5.776;2023-03-14T10:18:35;9.30;99.90
36990;DHT22;22898;52.102;5.776;2023-03-14T10:21:38;9.00;99.90
36990;DHT22;22898;52.102;5.776;2023-03-14T10:24:21;9.30;99.90
36990;DHT22;22898;52.102;5.776;2023-03-14T10:26:58;9.30;99.90
36990;DHT22;22898;52.102;5.776;2023-03-14T10:29:29;8.90;99.90
36990;DHT22;22898;52.102;5.776;2023-03-14T10:32:05;9.00;99.90
36990;DHT22;22898;52.102;5.776;2023-03-14T10:34:37;8.90;99.90
36990;DHT22;22898;52.102;5.776;2023-03-14T10:37:17;8.40;99.90
36990;DHT22;22898;52.102;5.776;2023-03-14T10:39:52;8.30;99.90
36990;DHT22;22898;52.102;5.776;2023-03-14T10:42:25;8.50;99.90
36990;DHT22;22898;52.102;5.776;2023-03-14T10:44:59;8.70;99.90
36990;DHT22;22898;52.102;5.776;2023-03-14T10:47:26;8.70;99.90
36990;DHT22;22898;52.102;5.776;2023-03-14T10:49:55;8.20;99.90
36990;DHT22;22898;52.102;5.776;2023-03-14T10:52:28;7.80;99.90
36990;DHT22;22898;52.102;5.776;2023-03-14T10:55:00;8.00;99.90
36990;DHT22;22898;52.102;5.776;2023-03-14T10:57:29;8.70;99.90
36990;DHT22;22898;52.102;5.776;2023-03-14T10:59:55;9.30;99.90
36990;DHT22;22898;52.102;5.776;2023-03-14T11:07:43;9.30;99.90
36990;DHT22;22898;52.102;5.776;2023-03-14T11:15:27;8.60;99.90
36990;DHT22;22898;52.102;5.776;2023-03-14T11:26:37;9.20;99.90
36990;DHT22;22898;52.102;5.776;2023-03-14T11:29:49;9.10;99.90
36990;DHT22;22898;52.102;5.776;2023-03-14T11:32:24;8.80;99.90
36990;DHT22;22898;52.102;5.776;2023-03-14T11:34:54;8.60;99.90
36990;DHT22;22898;52.102;5.776;2023-03-14T11:37:36;8.40;99.90
36990;DHT22;22898;52.102;5.776;2023-03-14T11:42:44;9.00;99.90
36990;DHT22;22898;52.102;5.776;2023-03-14T11:45:29;8.80;99.90
36990;DHT22;22898;52.102;5.776;2023-03-14T11:50:35;8.30;99.90
36990;DHT22;22898;52.102;5.776;2023-03-14T11:53:19;9.20;99.90
36990;DHT22;22898;52.102;5.776;2023-03-14T11:55:53;9.20;99.90
36990;DHT22;22898;52.102;5.776;2023-03-14T11:58:29;9.10;99.90
36990;DHT22;22898;52.102;5.776;2023-03-14T12:00:55;9.20;99.90
36990;DHT22;22898;52.102;5.776;2023-03-14T12:03:45;8.90;98.10
36990;DHT22;22898;52.102;5.776;2023-03-14T12:09:02;8.70;98.20
36990;DHT22;22898;52.102;5.776;2023-03-14T12:11:54;8.60;97.80
36990;DHT22;22898;52.102;5.776;2023-03-14T12:14:52;8.80;97.90
36990;DHT22;22898;52.102;5.776;2023-03-14T12:17:21;9.00;98.20
36990;DHT22;22898;52.102;5.776;2023-03-14T12:20:21;9.50;96.10
36990;DHT22;22898;52.102;5.776;2023-03-14T12:25:24;9.80;94.90
36990;DHT22;22898;52.102;5.776;2023-03-14T12:38:32;9.50;94.90
36990;DHT22;22898;52.102;5.776;2023-03-14T12:41:19;8.90;95.80
36990;DHT22;22898;52.102;5.776;2023-03-14T12:43:46;9.10;95.70
36990;DHT22;22898;52.102;5.776;2023-03-14T12:51:39;8.90;95.30
36990;DHT22;22898;52.102;5.776;2023-03-14T12:57:36;9.50;93.70
36990;DHT22;22898;52.102;5.776;2023-03-14T13:00:18;9.50;94.60
36990;DHT22;22898;52.102;5.776;2023-03-14T13:02:46;9.50;94.40
36990;DHT22;22898;52.102;5.776;2023-03-14T13:05:21;9.70;93.10
36990;DHT22;22898;52.102;5.776;2023-03-14T13:10:29;9.30;93.80
36990;DHT22;22898;52.102;5.776;2023-03-14T13:13:21;9.20;92.30
36990;DHT22;22898;52.102;5.776;2023-03-14T13:15:49;8.50;93.10
36990;DHT22;22898;52.102;5.776;2023-03-14T13:21:05;8.90;93.30
36990;DHT22;22898;52.102;5.776;2023-03-14T13:23:34;9.20;93.50
36990;DHT22;22898;52.102;5.776;2023-03-14T13:26:00;9.80;93.40
36990;DHT22;22898;52.102;5.776;2023-03-14T13:28:27;9.90;92.40
36990;DHT22;22898;52.102;5.776;2023-03-14T13:31:00;9.30;92.10
36990;DHT22;22898;52.102;5.776;2023-03-14T13:33:26;9.10;91.20
36990;DHT22;22898;52.102;5.776;2023-03-14T13:36:00;9.10;90.70
36990;DHT22;22898;52.102;5.776;2023-03-14T13:38:30;8.80;91.40
36990;DHT22;22898;52.102;5.776;2023-03-14T13:40:57;9.00;91.70
36990;DHT22;22898;52.102;5.776;2023-03-14T13:43:39;9.00;91.80
36990;DHT22;22898;52.102;5.776;2023-03-14T13:46:21;9.40;91.40
36990;DHT22;22898;52.102;5.776;2023-03-14T13:48:53;9.80;91.10
36990;DHT22;22898;52.102;5.776;2023-03-14T13:51:24;9.50;90.80
36990;DHT22;22898;52.102;5.776;2023-03-14T13:53:54;8.80;90.70
36990;DHT22;22898;52.102;5.776;2023-03-14T13:56:24;8.30;91.50
36990;DHT22;22898;52.102;5.776;2023-03-14T13:58:52;8.30;92.00
36990;DHT22;22898;52.102;5.776;2023-03-14T14:01:29;8.30;92.20
36990;DHT22;22898;52.102;5.776;2023-03-14T14:03:58;9.00;91.90
36990;DHT22;22898;52.102;5.776;2023-03-14T14:08:54;9.80;91.70
36990;DHT22;22898;52.102;5.776;2023-03-14T14:11:28;9.50;91.00
36990;DHT22;22898;52.102;5.776;2023-03-14T14:14:00;9.50;90.40
36990;DHT22;22898;52.102;5.776;2023-03-14T14:16:27;9.20;90.00
36990;DHT22;22898;52.102;5.776;2023-03-14T14:18:54;9.10;90.00
36990;DHT22;22898;52.102;5.776;2023-03-14T14:21:21;9.40;91.10
36990;DHT22;22898;52.102;5.776;2023-03-14T14:23:48;10.10;88.20
36990;DHT22;22898;52.102;5.776;2023-03-14T14:26:19;9.50;88.80
36990;DHT22;22898;52.102;5.776;2023-03-14T14:28:45;9.70;88.90
36990;DHT22;22898;52.102;5.776;2023-03-14T14:31:21;9.60;89.60
36990;DHT22;22898;52.102;5.776;2023-03-14T14:36:40;9.60;88.40
36990;DHT22;22898;52.102;5.776;2023-03-14T14:39:26;9.70;90.00
36990;DHT22;22898;52.102;5.776;2023-03-14T14:41:54;9.70;90.30
36990;DHT22;22898;52.102;5.776;2023-03-14T14:44:28;9.50;89.50
36990;DHT22;22898;52.102;5.776;2023-03-14T14:46:55;9.90;84.20
36990;DHT22;22898;52.102;5.776;2023-03-14T14:49:20;9.90;82.10
36990;DHT22;22898;52.102;5.776;2023-03-14T14:51:50;9.60;84.70
36990;DHT22;22898;52.102;5.776;2023-03-14T14:54:17;10.00;84.10
36990;DHT22;22898;52.102;5.776;2023-03-14T14:56:53;9.50;81.50
36990;DHT22;22898;52.102;5.776;2023-03-14T14:59:27;8.80;85.30
36990;DHT22;22898;52.102;5.776;2023-03-14T15:02:03;9.10;85.20
36990;DHT22;22898;52.102;5.776;2023-03-14T15:04:31;9.30;86.00
36990;DHT22;22898;52.102;5.776;2023-03-14T15:06:57;9.10;84.60
36990;DHT22;22898;52.102;5.776;2023-03-14T15:09:22;8.90;85.90
36990;DHT22;22898;52.102;5.776;2023-03-14T15:11:49;8.80;85.30
36990;DHT22;22898;52.102;5.776;2023-03-14T15:14:16;8.80;88.10
36990;DHT22;22898;52.102;5.776;2023-03-14T15:16:41;8.90;87.90
36990;DHT22;22898;52.102;5.776;2023-03-14T15:19:25;9.00;88.70
36990;DHT22;22898;52.102;5.776;2023-03-14T15:21:52;8.70;90.00
36990;DHT22;22898;52.102;5.776;2023-03-14T15:24:18;8.50;90.00
36990;DHT22;22898;52.102;5.776;2023-03-14T15:26:45;8.50;90.30
36990;DHT22;22898;52.102;5.776;2023-03-14T15:29:12;8.40;91.10
36990;DHT22;22898;52.102;5.776;2023-03-14T15:31:39;8.30;91.50
36990;DHT22;22898;52.102;5.776;2023-03-14T15:34:04;8.30;92.20
36990;DHT22;22898;52.102;5.776;2023-03-14T15:36:32;8.50;91.70
36990;DHT22;22898;52.102;5.776;2023-03-14T15:38:58;8.70;89.70
36990;DHT22;22898;52.102;5.776;2023-03-14T15:41:25;9.00;90.00
36990;DHT22;22898;52.102;5.776;2023-03-14T15:43:52;9.00;90.30
36990;DHT22;22898;52.102;5.776;2023-03-14T15:46:18;9.20;90.00
36990;DHT22;22898;52.102;5.776;2023-03-14T15:48:44;8.90;90.50
36990;DHT22;22898;52.102;5.776;2023-03-14T15:51:11;8.50;90.90
36990;DHT22;22898;52.102;5.776;2023-03-14T15:53:37;8.60;91.10
36990;DHT22;22898;52.102;5.776;2023-03-14T15:56:04;8.80;91.40
36990;DHT22;22898;52.102;5.776;2023-03-14T15:58:32;8.60;91.30
36990;DHT22;22898;52.102;5.776;2023-03-14T16:01:02;8.40;91.70
36990;DHT22;22898;52.102;5.776;2023-03-14T16:03:28;9.10;92.20
36990;DHT22;22898;52.102;5.776;2023-03-14T16:05:56;9.50;91.80
36990;DHT22;22898;52.102;5.776;2023-03-14T16:08:23;9.60;91.20
36990;DHT22;22898;52.102;5.776;2023-03-14T16:10:50;9.60;91.60
36990;DHT22;22898;52.102;5.776;2023-03-14T16:13:16;9.50;91.10
36990;DHT22;22898;52.102;5.776;2023-03-14T16:15:56;9.10;91.10
36990;DHT22;22898;52.102;5.776;2023-03-14T16:18:23;8.90;90.80
36990;DHT22;22898;52.102;5.776;2023-03-14T16:20:57;8.90;91.20
36990;DHT22;22898;52.102;5.776;2023-03-14T16:23:24;8.60;91.40
36990;DHT22;22898;52.102;5.776;2023-03-14T16:25:51;8.50;90.90
36990;DHT22;22898;52.102;5.776;2023-03-14T16:28:17;8.60;91.20
36990;DHT22;22898;52.102;5.776;2023-03-14T16:30:42;8.50;91.10
36990;DHT22;22898;52.102;5.776;2023-03-14T16:33:08;8.30;91.30
36990;DHT22;22898;52.102;5.776;2023-03-14T16:35:37;8.30;91.20
36990;DHT22;22898;52.102;5.776;2023-03-14T16:38:05;8.60;91.70
36990;DHT22;22898;52.102;5.776;2023-03-14T16:40:31;9.00;91.70
36990;DHT22;22898;52.102;5.776;2023-03-14T16:42:58;9.80;90.20
36990;DHT22;22898;52.102;5.776;2023-03-14T16:45:24;10.00;88.60
36990;DHT22;22898;52.102;5.776;2023-03-14T16:47:49;9.90;87.40
36990;DHT22;22898;52.102;5.776;2023-03-14T16:50:15;9.30;88.00
36990;DHT22;22898;52.102;5.776;2023-03-14T16:52:40;9.40;89.80
36990;DHT22;22898;52.102;5.776;2023-03-14T16:55:06;9.30;90.00
36990;DHT22;22898;52.102;5.776;2023-03-14T16:57:33;9.30;90.40